This is the latest recevied weather packets stored in our database for station/object 9W2CEW-1. If no packets are shown the sender has not sent any weather packets the latest 10 day(s).
| Time | Temp. | Humidity | Pressure | Rain* | Wind** | Luminosity | Snow |
|---|---|---|---|---|---|---|---|
| 1787693877 | 36.11° C | 45% | 1005.3 hPa | - | - | - | - |
| 1787693003 | 38.33° C | 44% | 1004.7 hPa | - | - | - | - |
| 1787692103 | 36.11° C | 48% | 1004.9 hPa | - | - | - | - |
| 1787691968 | 37.22° C | 44% | 1004.9 hPa | - | - | - | - |
| 1787691203 | 37.78° C | 46% | 1004.8 hPa | - | - | - | - |
| 1787690303 | 39.44° C | 41% | 1004.3 hPa | - | - | - | - |
| 1787689403 | 38.89° C | 42% | 1004.5 hPa | - | - | - | - |
| 1787689247 | 36.67° C | 45% | 1004.3 hPa | - | - | - | - |
| 1787688504 | 38.89° C | 41% | 1004.7 hPa | - | - | - | - |
| 1787687604 | 37.78° C | 44% | 1004.9 hPa | - | - | - | - |
| 1787687512 | 36.67° C | 45% | 1004.3 hPa | - | - | - | - |
| 1787686704 | 38.89° C | 42% | 1004.9 hPa | - | - | - | - |
| 1787686619 | 37.78° C | 42% | 1003.6 hPa | - | - | - | - |
| 1787685804 | 38.33° C | 42% | 1004.8 hPa | - | - | - | - |
| 1787685759 | 37.78° C | 42% | 1003.9 hPa | - | - | - | - |
| 1787684904 | 37.78° C | 44% | 1004.9 hPa | - | - | - | - |
| 1787684624 | 38.33° C | 42% | 1003.6 hPa | - | - | - | - |
| 1787684004 | 38.33° C | 43% | 1005 hPa | - | - | - | - |
| 1787683199 | 39.44° C | 40% | 1003.2 hPa | - | - | - | - |
| 1787683104 | 38.89° C | 42% | 1005.1 hPa | - | - | - | - |
| 1787682204 | 39.44° C | 40% | 1005.1 hPa | - | - | - | - |
| 1787681306 | 38.33° C | 43% | 1005.2 hPa | - | - | - | - |
| 1787680404 | 38.33° C | 44% | 1005.6 hPa | - | - | - | - |
| 1787679506 | 38.89° C | 42% | 1005.8 hPa | - | - | - | - |
| 1787678603 | 38.33° C | 42% | 1006.3 hPa | - | - | - | - |
* Rain since midnight (hover to see other rain measurements)
** Current wind speed in m/s (hover to see current wind gust speed)